createdAt,value
2023-05-19T00:02:18.325Z,13.84
2023-05-19T00:04:44.783Z,13.82
2023-05-19T00:07:11.265Z,13.67
2023-05-19T00:09:37.887Z,13.56
2023-05-19T00:12:04.323Z,13.70
2023-05-19T00:14:30.892Z,13.72
2023-05-19T00:16:57.910Z,13.78
2023-05-19T00:19:25.372Z,13.44
2023-05-19T00:21:51.716Z,13.04
2023-05-19T00:24:18.069Z,13.09
2023-05-19T00:26:44.439Z,13.40
2023-05-19T00:29:10.768Z,13.54
2023-05-19T00:31:37.173Z,13.57
2023-05-19T00:34:03.529Z,13.62
2023-05-19T00:36:29.880Z,13.42
2023-05-19T00:38:56.210Z,13.32
2023-05-19T00:41:22.704Z,13.33
2023-05-19T00:43:49.173Z,13.53
2023-05-19T00:46:15.683Z,13.61
2023-05-19T00:48:44.618Z,13.68
2023-05-19T00:51:14.477Z,13.64
2023-05-19T00:53:40.842Z,13.63
2023-05-19T00:56:07.225Z,13.52
2023-05-19T00:58:33.575Z,13.25
2023-05-19T01:01:04.229Z,13.16
2023-05-19T01:03:31.594Z,13.09
2023-05-19T01:06:01.574Z,13.14
2023-05-19T01:08:28.930Z,12.98
2023-05-19T01:10:55.298Z,12.94
2023-05-19T01:13:21.654Z,13.04
2023-05-19T01:15:58.926Z,12.98
2023-05-19T01:18:46.377Z,13.11
2023-05-19T01:21:36.333Z,13.02
2023-05-19T01:24:03.715Z,13.02
2023-05-19T01:26:30.213Z,13.25
2023-05-19T01:29:14.784Z,13.38
2023-05-19T01:31:41.184Z,13.39
2023-05-19T01:34:07.520Z,13.52
2023-05-19T01:36:33.847Z,13.57
2023-05-19T01:39:00.822Z,13.61
2023-05-19T01:41:28.419Z,13.55
2023-05-19T01:43:54.849Z,13.52
2023-05-19T01:46:21.253Z,13.51
2023-05-19T01:48:47.716Z,13.59
2023-05-19T01:51:14.082Z,13.40
2023-05-19T01:53:40.596Z,13.52
2023-05-19T01:56:07.286Z,13.60
2023-05-19T01:58:46.572Z,13.62
2023-05-19T02:01:12.959Z,13.45
2023-05-19T02:03:42.465Z,13.42
2023-05-19T02:06:21.025Z,13.53
2023-05-19T02:08:51.221Z,13.60
2023-05-19T02:11:26.232Z,13.52
2023-05-19T02:13:53.088Z,13.33
2023-05-19T02:16:19.547Z,13.19
2023-05-19T02:18:46.203Z,13.24
2023-05-19T02:21:13.446Z,13.39
2023-05-19T02:23:41.064Z,13.45
2023-05-19T02:26:08.610Z,13.11
2023-05-19T02:28:35.154Z,13.13
2023-05-19T02:31:01.591Z,13.31
2023-05-19T02:33:30.249Z,13.44
2023-05-19T02:35:56.899Z,13.44
2023-05-19T02:38:23.271Z,13.36
2023-05-19T02:40:51.056Z,13.16
2023-05-19T02:43:17.387Z,13.14
2023-05-19T02:45:43.715Z,13.21
2023-05-19T02:48:10.077Z,13.04
2023-05-19T02:50:36.460Z,13.12
2023-05-19T02:53:03.663Z,13.21
2023-05-19T02:55:29.989Z,13.29
2023-05-19T02:57:56.438Z,13.19
2023-05-19T03:00:22.988Z,13.30
2023-05-19T03:02:49.626Z,13.31
2023-05-19T03:05:16.076Z,13.08
2023-05-19T03:07:42.412Z,12.98
2023-05-19T03:10:08.846Z,13.19
2023-05-19T03:12:35.251Z,13.24
2023-05-19T03:15:01.596Z,13.38
2023-05-19T03:17:33.620Z,13.35
2023-05-19T03:20:00.965Z,13.21
2023-05-19T03:22:27.351Z,13.20
2023-05-19T03:24:54.248Z,13.09
2023-05-19T03:27:20.598Z,13.08
2023-05-19T03:29:46.928Z,12.84
2023-05-19T03:32:13.359Z,12.75
2023-05-19T03:34:39.725Z,12.83
2023-05-19T03:37:06.055Z,12.87
2023-05-19T03:39:32.412Z,13.12
2023-05-19T03:41:58.791Z,13.22
2023-05-19T03:44:25.264Z,13.33
2023-05-19T03:46:51.623Z,13.07
2023-05-19T03:49:17.969Z,13.23
2023-05-19T03:51:44.320Z,13.33
2023-05-19T03:54:10.684Z,13.31
2023-05-19T03:56:40.102Z,13.35
2023-05-19T03:59:07.250Z,13.49
2023-05-19T04:01:33.602Z,13.54
2023-05-19T04:03:59.924Z,13.54
2023-05-19T04:06:26.271Z,13.48
2023-05-19T04:08:52.598Z,13.52
2023-05-19T04:11:20.036Z,13.58
2023-05-19T04:13:46.373Z,13.61
2023-05-19T04:16:12.735Z,13.54
2023-05-19T04:18:39.225Z,13.52
2023-05-19T04:21:05.581Z,13.50
2023-05-19T04:23:32.499Z,13.48
2023-05-19T04:25:59.030Z,13.49
2023-05-19T04:28:25.363Z,13.50
2023-05-19T04:30:51.870Z,13.31
2023-05-19T04:33:19.977Z,12.93
2023-05-19T04:35:46.320Z,12.81
2023-05-19T04:38:12.648Z,12.94
2023-05-19T04:40:40.344Z,13.13
2023-05-19T04:43:07.302Z,13.32
2023-05-19T04:45:33.981Z,13.45
2023-05-19T04:48:00.473Z,13.45
2023-05-19T04:50:28.566Z,13.44
2023-05-19T04:52:54.964Z,13.52
2023-05-19T04:55:21.310Z,13.54
2023-05-19T04:57:47.633Z,13.55
2023-05-19T05:00:14.385Z,13.47
2023-05-19T05:02:42.714Z,13.47
2023-05-19T05:05:10.102Z,13.50
2023-05-19T05:07:36.622Z,13.39
2023-05-19T05:10:03.900Z,13.39
2023-05-19T05:12:30.843Z,13.47
2023-05-19T05:14:57.447Z,13.51
2023-05-19T05:17:25.590Z,13.50
2023-05-19T05:19:52.026Z,13.55
2023-05-19T05:22:18.431Z,13.49
2023-05-19T05:24:44.881Z,13.65
2023-05-19T05:27:11.428Z,13.75
2023-05-19T05:29:37.863Z,13.78
2023-05-19T05:32:04.313Z,13.82
2023-05-19T05:34:30.738Z,13.80
2023-05-19T05:36:57.047Z,13.82
2023-05-19T05:39:23.371Z,13.78
2023-05-19T05:41:49.699Z,13.78
2023-05-19T05:44:16.017Z,13.67
2023-05-19T05:46:42.435Z,13.00
2023-05-19T05:49:09.019Z,12.75
2023-05-19T05:51:35.791Z,12.47
2023-05-19T05:54:02.128Z,12.93
2023-05-19T05:56:28.601Z,12.81
2023-05-19T05:58:54.984Z,13.06
2023-05-19T06:01:21.901Z,13.16
2023-05-19T06:03:48.292Z,12.89
2023-05-19T06:06:14.648Z,13.01
2023-05-19T06:08:41.072Z,13.32
2023-05-19T06:11:09.091Z,13.29
2023-05-19T06:13:35.886Z,13.65
2023-05-19T06:16:02.388Z,13.97
2023-05-19T06:18:28.906Z,13.83
2023-05-19T06:20:55.291Z,12.94
2023-05-19T06:23:21.720Z,12.89
2023-05-19T06:25:48.046Z,12.78
2023-05-19T06:28:14.377Z,12.98
2023-05-19T06:30:40.785Z,12.74
2023-05-19T06:33:07.225Z,12.81
2023-05-19T06:35:33.613Z,13.32
2023-05-19T06:37:59.964Z,13.67
2023-05-19T06:40:26.308Z,13.81
2023-05-19T06:42:52.798Z,13.48
2023-05-19T06:45:21.829Z,13.53
2023-05-19T06:47:48.446Z,13.73
2023-05-19T06:50:14.832Z,13.92
2023-05-19T06:52:41.214Z,13.80
2023-05-19T06:55:07.704Z,13.67
2023-05-19T06:57:34.042Z,13.08
2023-05-19T07:00:00.371Z,12.88
2023-05-19T07:02:26.797Z,12.86
2023-05-19T07:04:53.986Z,12.74
2023-05-19T07:07:20.403Z,12.74
2023-05-19T07:09:46.737Z,12.89
2023-05-19T07:12:13.067Z,12.98
2023-05-19T07:14:39.437Z,13.00
2023-05-19T07:17:05.864Z,12.93
2023-05-19T07:19:32.283Z,13.18
2023-05-19T07:21:59.336Z,13.32
2023-05-19T07:24:27.388Z,13.29
2023-05-19T07:26:53.756Z,13.06
2023-05-19T07:29:20.084Z,13.19
2023-05-19T07:31:46.488Z,13.34
2023-05-19T07:34:12.881Z,13.15
2023-05-19T07:36:39.214Z,12.95
2023-05-19T07:39:05.759Z,13.10
2023-05-19T07:41:33.214Z,13.51
2023-05-19T07:44:00.677Z,13.77
2023-05-19T07:46:27.189Z,13.84
2023-05-19T07:48:53.558Z,13.82
2023-05-19T07:51:20.023Z,13.73
2023-05-19T07:53:47.075Z,13.51
2023-05-19T07:56:13.540Z,13.18
2023-05-19T07:58:40.290Z,13.04
2023-05-19T08:01:06.703Z,12.76
2023-05-19T08:03:33.757Z,12.66
2023-05-19T08:06:00.288Z,12.75
2023-05-19T08:08:26.837Z,12.62
2023-05-19T08:10:53.152Z,12.91
2023-05-19T08:13:19.490Z,12.99
2023-05-19T08:15:46.023Z,13.03
2023-05-19T08:18:12.547Z,13.20
2023-05-19T08:20:38.977Z,13.03
2023-05-19T08:23:05.446Z,13.35
2023-05-19T08:25:32.066Z,13.22
2023-05-19T08:27:58.392Z,13.61
2023-05-19T08:30:24.871Z,13.44
2023-05-19T08:32:51.342Z,13.15
2023-05-19T08:35:17.767Z,13.47
2023-05-19T08:37:44.100Z,13.60
2023-05-19T08:40:11.863Z,13.51
2023-05-19T08:42:38.199Z,13.85
2023-05-19T08:45:04.735Z,13.78
2023-05-19T08:47:31.815Z,14.08
2023-05-19T08:50:00.726Z,14.13
2023-05-19T08:52:29.972Z,14.05
2023-05-19T08:55:01.252Z,14.40
2023-05-19T08:57:27.892Z,14.45
2023-05-19T08:59:54.528Z,14.06
2023-05-19T09:02:20.891Z,14.12
2023-05-19T09:04:48.028Z,13.95
2023-05-19T09:07:14.745Z,13.98
2023-05-19T09:09:43.507Z,14.27
2023-05-19T09:12:11.291Z,14.03
2023-05-19T09:14:37.993Z,14.34
2023-05-19T09:17:04.590Z,14.43
2023-05-19T09:19:31.250Z,14.28
2023-05-19T09:21:59.412Z,14.20
2023-05-19T09:24:25.988Z,14.41
2023-05-19T09:26:53.341Z,14.66
2023-05-19T09:29:19.950Z,15.07
2023-05-19T09:31:52.226Z,14.67
2023-05-19T09:34:18.746Z,14.84
2023-05-19T09:36:46.624Z,15.27
2023-05-19T09:39:14.212Z,15.08
2023-05-19T09:41:40.590Z,15.13
2023-05-19T09:44:07.333Z,14.91
2023-05-19T09:46:35.875Z,14.92
2023-05-19T09:49:08.578Z,14.75
2023-05-19T09:51:36.011Z,15.38
2023-05-19T09:54:02.671Z,14.87
2023-05-19T09:56:33.019Z,14.37
2023-05-19T09:58:59.408Z,14.28
2023-05-19T10:01:25.978Z,14.16
2023-05-19T10:03:52.471Z,14.84
2023-05-19T10:06:19.052Z,14.73
2023-05-19T10:08:45.480Z,14.84
2023-05-19T10:11:11.824Z,14.79
2023-05-19T10:13:38.539Z,14.83
2023-05-19T10:16:05.146Z,14.95
2023-05-19T10:18:31.495Z,14.94
2023-05-19T10:20:57.994Z,15.25
2023-05-19T10:23:24.684Z,15.11
2023-05-19T10:25:51.478Z,15.43
2023-05-19T10:28:17.883Z,15.47
2023-05-19T10:30:47.687Z,15.33
2023-05-19T10:33:15.254Z,15.27
2023-05-19T10:36:02.464Z,15.33
2023-05-19T10:38:42.940Z,15.30
2023-05-19T10:41:13.819Z,15.29
2023-05-19T10:43:45.779Z,15.22
2023-05-19T10:46:12.121Z,15.47
2023-05-19T10:48:38.473Z,15.57
2023-05-19T10:51:05.004Z,15.54
2023-05-19T10:53:31.860Z,16.08
2023-05-19T10:56:02.500Z,15.87
2023-05-19T10:58:39.131Z,15.64
2023-05-19T11:01:09.878Z,15.43
2023-05-19T11:03:46.920Z,15.21
2023-05-19T11:06:29.496Z,15.47
2023-05-19T11:08:57.015Z,15.60
2023-05-19T11:11:23.620Z,15.90
2023-05-19T11:13:54.956Z,15.69
2023-05-19T11:16:30.286Z,15.51
2023-05-19T11:18:56.876Z,15.43
2023-05-19T11:21:23.278Z,15.66
2023-05-19T11:23:50.873Z,15.73
2023-05-19T11:26:17.199Z,15.76
2023-05-19T11:28:43.593Z,15.80
2023-05-19T11:31:10.351Z,15.59
2023-05-19T11:33:36.934Z,15.39
2023-05-19T11:36:03.878Z,15.21
2023-05-19T11:38:30.398Z,15.52
2023-05-19T11:40:56.929Z,15.58
2023-05-19T11:43:24.139Z,15.86
2023-05-19T11:45:50.926Z,16.08
2023-05-19T11:48:18.247Z,15.96
2023-05-19T11:50:44.707Z,16.17
2023-05-19T11:53:12.023Z,15.83
2023-05-19T11:55:41.867Z,15.63
2023-05-19T11:58:08.169Z,15.60
2023-05-19T12:00:38.858Z,15.50
2023-05-19T12:03:05.847Z,15.60
2023-05-19T12:05:34.962Z,15.69
2023-05-19T12:08:03.913Z,15.77
2023-05-19T12:10:31.006Z,15.71
2023-05-19T12:12:58.383Z,15.89
2023-05-19T12:15:24.754Z,16.44
2023-05-19T12:17:57.398Z,16.17
2023-05-19T12:20:23.857Z,16.22
2023-05-19T12:22:50.723Z,15.80
2023-05-19T12:25:17.212Z,15.71
2023-05-19T12:27:43.601Z,16.01
2023-05-19T12:30:10.370Z,15.83
2023-05-19T12:32:36.849Z,15.78
2023-05-19T12:35:04.679Z,15.79
2023-05-19T12:37:31.058Z,15.78
2023-05-19T12:39:57.554Z,15.69
2023-05-19T12:42:24.250Z,16.09
2023-05-19T12:44:53.809Z,16.10
2023-05-19T12:47:20.203Z,15.68
2023-05-19T12:49:56.645Z,15.51
2023-05-19T12:52:23.345Z,16.07
2023-05-19T12:54:50.311Z,15.76
2023-05-19T12:57:16.894Z,15.96
2023-05-19T12:59:43.693Z,15.78
2023-05-19T13:02:10.187Z,15.61
2023-05-19T13:04:36.639Z,15.60
2023-05-19T13:07:02.998Z,15.43
2023-05-19T13:09:29.328Z,15.73
2023-05-19T13:11:55.910Z,16.04
2023-05-19T13:14:22.248Z,16.34
2023-05-19T13:16:48.655Z,16.32
2023-05-19T13:19:24.789Z,15.83
2023-05-19T13:21:52.278Z,15.50
2023-05-19T13:24:18.714Z,15.10
2023-05-19T13:26:45.189Z,15.13
2023-05-19T13:29:11.907Z,15.31
2023-05-19T13:31:38.318Z,15.28
2023-05-19T13:34:04.695Z,15.16
2023-05-19T13:36:33.152Z,15.29
2023-05-19T13:39:00.714Z,15.44
2023-05-19T13:41:27.147Z,15.35
2023-05-19T13:43:53.521Z,15.66
2023-05-19T13:46:26.552Z,15.83
2023-05-19T13:48:59.304Z,15.39
2023-05-19T13:51:25.886Z,14.84
2023-05-19T13:53:52.527Z,14.81
2023-05-19T13:56:18.872Z,14.77
2023-05-19T13:58:45.268Z,14.97
2023-05-19T14:01:11.720Z,15.35
2023-05-19T14:03:38.178Z,15.61
2023-05-19T14:06:04.622Z,15.49
2023-05-19T14:08:31.020Z,15.64
2023-05-19T14:10:57.415Z,15.42
2023-05-19T14:15:53.668Z,15.67
2023-05-19T14:18:20.404Z,16.11
2023-05-19T14:20:46.747Z,16.42
2023-05-19T14:23:14.941Z,16.76
2023-05-19T14:25:41.424Z,16.73
2023-05-19T14:28:07.791Z,16.96
2023-05-19T14:30:34.359Z,16.82
2023-05-19T14:33:01.066Z,16.47
2023-05-19T14:35:27.528Z,16.31
2023-05-19T14:37:53.934Z,15.98
2023-05-19T14:40:20.386Z,16.01
2023-05-19T14:42:46.742Z,15.98
2023-05-19T14:45:13.253Z,16.02
2023-05-19T14:47:39.648Z,15.88
2023-05-19T14:50:06.252Z,15.75
2023-05-19T14:52:32.607Z,15.97
2023-05-19T14:54:58.954Z,16.07
2023-05-19T14:57:25.308Z,16.51
2023-05-19T14:59:51.653Z,16.91
2023-05-19T15:02:18.020Z,16.88
2023-05-19T15:04:44.379Z,17.06
2023-05-19T15:07:11.266Z,16.44
2023-05-19T15:09:37.781Z,16.62
2023-05-19T15:12:04.185Z,16.23
2023-05-19T15:14:31.283Z,16.15
2023-05-19T15:16:58.038Z,16.30
2023-05-19T15:19:24.676Z,16.19
2023-05-19T15:21:51.167Z,15.96
2023-05-19T15:24:17.565Z,16.09
2023-05-19T15:26:43.917Z,16.12
2023-05-19T15:29:12.056Z,15.92
2023-05-19T15:31:38.691Z,15.88
2023-05-19T15:34:05.164Z,15.92
2023-05-19T15:36:31.863Z,15.77
2023-05-19T15:38:58.234Z,16.11
2023-05-19T15:41:24.593Z,16.42
2023-05-19T15:43:51.194Z,16.33
2023-05-19T15:46:19.527Z,16.16
2023-05-19T15:48:46.228Z,16.18
2023-05-19T15:51:12.580Z,16.12
2023-05-19T15:53:38.985Z,15.95
2023-05-19T15:56:05.420Z,15.64
2023-05-19T15:58:31.769Z,15.49
2023-05-19T16:00:58.091Z,15.70
2023-05-19T16:03:24.556Z,15.97
2023-05-19T16:05:51.227Z,15.62
2023-05-19T16:08:17.580Z,15.76
2023-05-19T16:10:43.915Z,15.79
2023-05-19T16:13:10.302Z,15.94
2023-05-19T16:15:36.637Z,15.88
2023-05-19T16:18:03.126Z,15.87
2023-05-19T16:20:29.799Z,15.81
2023-05-19T16:22:56.189Z,16.13
2023-05-19T16:25:22.735Z,16.05
2023-05-19T16:27:49.080Z,15.87
2023-05-19T16:30:16.467Z,15.81
2023-05-19T16:32:42.873Z,15.92
2023-05-19T16:35:09.366Z,15.91
2023-05-19T16:37:35.714Z,15.89
2023-05-19T16:40:02.072Z,15.71
2023-05-19T16:42:28.419Z,15.76
2023-05-19T16:44:54.791Z,15.51
2023-05-19T16:47:21.148Z,15.67
2023-05-19T16:49:47.488Z,15.36
2023-05-19T16:52:13.844Z,15.47
2023-05-19T16:54:40.177Z,15.43
2023-05-19T16:57:06.514Z,15.69
2023-05-19T16:59:32.847Z,15.34
2023-05-19T17:01:59.249Z,15.77
2023-05-19T17:04:25.643Z,15.50
2023-05-19T17:06:51.976Z,15.07
2023-05-19T17:09:24.813Z,15.68
2023-05-19T17:11:52.395Z,16.00
2023-05-19T17:14:18.756Z,16.16
2023-05-19T17:16:45.128Z,16.48
2023-05-19T17:19:12.010Z,16.75
2023-05-19T17:21:38.477Z,16.89
2023-05-19T17:24:05.091Z,16.94
2023-05-19T17:26:31.422Z,16.72
2023-05-19T17:28:57.764Z,16.50
2023-05-19T17:31:24.087Z,16.49
2023-05-19T17:33:50.680Z,16.74
2023-05-19T17:36:17.094Z,16.85
2023-05-19T17:38:43.462Z,16.72
2023-05-19T17:41:10.101Z,16.58
2023-05-19T17:43:37.205Z,16.19
2023-05-19T17:46:03.761Z,16.22
2023-05-19T17:48:30.899Z,16.25
2023-05-19T17:50:57.222Z,16.33
2023-05-19T17:53:23.712Z,16.40
2023-05-19T17:55:50.643Z,16.32
2023-05-19T17:58:20.261Z,16.26
2023-05-19T18:00:46.696Z,16.04
2023-05-19T18:03:13.229Z,16.26
2023-05-19T18:05:40.081Z,16.38
2023-05-19T18:08:07.072Z,16.50
2023-05-19T18:10:35.394Z,16.49
2023-05-19T18:13:01.813Z,16.39
2023-05-19T18:15:28.160Z,16.36
2023-05-19T18:17:54.561Z,16.31
2023-05-19T18:20:21.178Z,16.46
2023-05-19T18:22:47.516Z,16.50
2023-05-19T18:25:13.857Z,16.50
2023-05-19T18:27:42.465Z,16.38
2023-05-19T18:30:08.803Z,16.24
2023-05-19T18:32:35.201Z,16.38
2023-05-19T18:35:01.564Z,16.07
2023-05-19T18:37:28.539Z,15.60
2023-05-19T18:39:54.874Z,15.96
2023-05-19T18:42:21.272Z,15.93
2023-05-19T18:44:47.650Z,15.58
2023-05-19T18:47:14.426Z,15.42
2023-05-19T18:49:40.755Z,15.72
2023-05-19T18:52:07.096Z,15.83
2023-05-19T18:54:33.552Z,15.93
2023-05-19T18:56:59.912Z,15.46
2023-05-19T18:59:26.306Z,15.68
2023-05-19T19:01:53.023Z,15.84
2023-05-19T19:04:19.488Z,15.91
2023-05-19T19:06:46.653Z,15.75
2023-05-19T19:09:12.984Z,15.37
2023-05-19T19:11:39.333Z,14.97
2023-05-19T19:14:05.655Z,15.17
2023-05-19T19:16:32.074Z,15.13
2023-05-19T19:18:58.614Z,14.89
2023-05-19T19:21:25.706Z,15.23
2023-05-19T19:23:52.688Z,15.51
2023-05-19T19:26:19.016Z,15.61
2023-05-19T19:28:46.210Z,15.71
2023-05-19T19:31:12.566Z,15.67
2023-05-19T19:33:39.699Z,15.57
2023-05-19T19:36:06.190Z,15.57
2023-05-19T19:38:32.509Z,15.66
2023-05-19T19:40:59.088Z,15.37
2023-05-19T19:43:25.436Z,15.35
2023-05-19T19:45:58.784Z,15.60
2023-05-19T19:48:25.165Z,15.75
2023-05-19T19:50:57.452Z,15.50
2023-05-19T19:53:23.788Z,15.16
2023-05-19T19:55:59.420Z,15.36
2023-05-19T19:58:26.069Z,15.57
2023-05-19T20:00:56.041Z,15.74
2023-05-19T20:03:22.514Z,15.81
2023-05-19T20:05:48.956Z,15.49
2023-05-19T20:08:16.137Z,14.99
2023-05-19T20:10:42.561Z,14.52
2023-05-19T20:13:08.890Z,14.74
2023-05-19T20:15:35.212Z,14.99
2023-05-19T20:18:01.635Z,15.20
2023-05-19T20:20:28.072Z,15.41
2023-05-19T20:22:54.397Z,15.56
2023-05-19T20:25:20.837Z,15.58
2023-05-19T20:27:47.185Z,15.68
2023-05-19T20:30:13.547Z,15.67
2023-05-19T20:32:40.015Z,15.68
2023-05-19T20:35:06.829Z,15.37
2023-05-19T20:37:33.187Z,15.37
2023-05-19T20:39:59.581Z,15.56
2023-05-19T20:42:25.942Z,15.62
2023-05-19T20:44:52.268Z,15.33
2023-05-19T20:47:19.193Z,15.17
2023-05-19T20:49:45.740Z,15.00
2023-05-19T20:52:12.081Z,14.97
2023-05-19T20:54:38.420Z,14.89
2023-05-19T20:57:08.915Z,14.80
2023-05-19T20:59:35.737Z,14.96
2023-05-19T21:02:02.296Z,15.19
2023-05-19T21:04:28.666Z,15.06
2023-05-19T21:06:55.099Z,14.78
2023-05-19T21:09:21.631Z,14.87
2023-05-19T21:11:47.944Z,15.16
2023-05-19T21:14:14.273Z,14.69
2023-05-19T21:16:42.304Z,14.80
2023-05-19T21:19:08.693Z,14.84
2023-05-19T21:21:35.043Z,14.94
2023-05-19T21:24:01.394Z,14.38
2023-05-19T21:26:27.727Z,14.43
2023-05-19T21:28:54.120Z,14.38
2023-05-19T21:31:20.507Z,14.40
2023-05-19T21:33:46.900Z,14.73
2023-05-19T21:36:13.266Z,14.52
2023-05-19T21:38:39.588Z,14.73
2023-05-19T21:41:05.924Z,14.92
2023-05-19T21:43:32.264Z,15.09
2023-05-19T21:45:58.653Z,15.24
2023-05-19T21:48:25.080Z,15.33
2023-05-19T21:50:54.646Z,15.41
2023-05-19T21:53:21.086Z,15.41
2023-05-19T21:55:47.451Z,15.33
2023-05-19T21:58:13.798Z,15.36
2023-05-19T22:00:40.492Z,15.41
2023-05-19T22:03:07.286Z,15.45
2023-05-19T22:05:35.103Z,15.43
2023-05-19T22:08:01.550Z,15.36
2023-05-19T22:10:27.895Z,15.38
2023-05-19T22:12:54.220Z,15.41
2023-05-19T22:15:20.698Z,15.38
2023-05-19T22:17:47.144Z,15.38
2023-05-19T22:20:13.574Z,15.37
2023-05-19T22:22:39.886Z,15.33
2023-05-19T22:25:06.951Z,15.24
2023-05-19T22:27:33.287Z,15.19
2023-05-19T22:29:59.689Z,15.21
2023-05-19T22:32:26.174Z,15.24
2023-05-19T22:34:52.589Z,15.15
2023-05-19T22:37:19.017Z,14.69
2023-05-19T22:39:45.419Z,14.95
2023-05-19T22:42:11.758Z,15.07
2023-05-19T22:44:38.093Z,15.09
2023-05-19T22:47:04.512Z,15.08
2023-05-19T22:49:30.980Z,14.99
2023-05-19T22:51:57.327Z,14.99
2023-05-19T22:54:23.734Z,14.96
2023-05-19T22:56:50.203Z,15.05
2023-05-19T22:59:17.737Z,15.11
2023-05-19T23:01:46.271Z,15.05
2023-05-19T23:04:13.015Z,15.04
2023-05-19T23:06:39.342Z,15.03
2023-05-19T23:09:05.764Z,14.91
2023-05-19T23:11:32.114Z,14.84
2023-05-19T23:13:58.549Z,14.83
2023-05-19T23:16:24.916Z,14.90
2023-05-19T23:18:51.343Z,14.72
2023-05-19T23:21:17.766Z,14.80
2023-05-19T23:23:44.111Z,14.80
2023-05-19T23:26:13.166Z,14.61
2023-05-19T23:28:40.244Z,14.36
2023-05-19T23:31:06.642Z,13.97
2023-05-19T23:33:33.011Z,14.10
2023-05-19T23:35:59.487Z,13.95
2023-05-19T23:38:26.930Z,14.07
2023-05-19T23:40:53.271Z,13.82
2023-05-19T23:43:19.610Z,13.66
2023-05-19T23:45:45.993Z,13.92
2023-05-19T23:48:12.438Z,13.94
2023-05-19T23:50:38.937Z,13.56
2023-05-19T23:53:05.270Z,13.78
2023-05-19T23:55:31.836Z,14.07
2023-05-19T23:57:58.417Z,13.99
